sensor_id;sensor_type;location;lat;lon;timestamp;pressure;altitude;pressure_sealevel;temperature;humidity
48404;BME280;34202;52.536;6.042;2023-03-04T00:03:19;102743.03;;;5.10;96.79
48404;BME280;34202;52.536;6.042;2023-03-04T00:08:19;102744.34;;;5.12;96.64
48404;BME280;34202;52.536;6.042;2023-03-04T00:13:19;102743.08;;;5.11;96.61
48404;BME280;34202;52.536;6.042;2023-03-04T00:18:21;102740.95;;;5.09;96.48
48404;BME280;34202;52.536;6.042;2023-03-04T00:23:22;102739.73;;;5.09;96.37
48404;BME280;34202;52.536;6.042;2023-03-04T00:28:22;102735.42;;;5.09;96.51
48404;BME280;34202;52.536;6.042;2023-03-04T00:33:22;102734.52;;;5.09;96.75
48404;BME280;34202;52.536;6.042;2023-03-04T00:38:23;102730.14;;;5.08;96.88
48404;BME280;34202;52.536;6.042;2023-03-04T00:43:23;102732.01;;;5.07;96.66
48404;BME280;34202;52.536;6.042;2023-03-04T00:48:24;102724.43;;;5.08;96.56
48404;BME280;34202;52.536;6.042;2023-03-04T00:53:24;102728.21;;;5.07;96.50
48404;BME280;34202;52.536;6.042;2023-03-04T00:58:25;102726.47;;;5.07;96.59
48404;BME280;34202;52.536;6.042;2023-03-04T01:03:25;102727.52;;;5.07;96.58
48404;BME280;34202;52.536;6.042;2023-03-04T01:08:26;102729.41;;;5.07;96.47
48404;BME280;34202;52.536;6.042;2023-03-04T01:13:26;102729.77;;;5.07;96.37
48404;BME280;34202;52.536;6.042;2023-03-04T01:18:26;102731.13;;;5.07;96.32
48404;BME280;34202;52.536;6.042;2023-03-04T01:23:27;102731.39;;;5.06;96.29
48404;BME280;34202;52.536;6.042;2023-03-04T01:28:27;102730.41;;;5.03;96.14
48404;BME280;34202;52.536;6.042;2023-03-04T01:33:28;102724.17;;;5.03;96.31
48404;BME280;34202;52.536;6.042;2023-03-04T01:38:28;102717.45;;;5.03;96.08
48404;BME280;34202;52.536;6.042;2023-03-04T01:43:30;102715.21;;;5.03;96.12
48404;BME280;34202;52.536;6.042;2023-03-04T01:48:33;102709.32;;;5.03;96.02
48404;BME280;34202;52.536;6.042;2023-03-04T01:53:36;102701.17;;;5.02;96.16
48404;BME280;34202;52.536;6.042;2023-03-04T01:58:36;102696.46;;;5.01;96.25
48404;BME280;34202;52.536;6.042;2023-03-04T02:03:37;102696.87;;;4.99;95.95
48404;BME280;34202;52.536;6.042;2023-03-04T02:08:38;102686.27;;;4.98;96.15
48404;BME280;34202;52.536;6.042;2023-03-04T02:13:38;102679.02;;;4.98;96.33
48404;BME280;34202;52.536;6.042;2023-03-04T02:18:39;102668.51;;;4.98;96.41
48404;BME280;34202;52.536;6.042;2023-03-04T02:29:16;102661.25;;;4.98;96.16
48404;BME280;34202;52.536;6.042;2023-03-04T02:44:23;102661.98;;;4.99;96.40
48404;BME280;34202;52.536;6.042;2023-03-04T02:49:26;102655.23;;;4.99;96.63
48404;BME280;34202;52.536;6.042;2023-03-04T02:54:28;102652.39;;;4.97;96.66
48404;BME280;34202;52.536;6.042;2023-03-04T02:59:29;102644.91;;;4.96;96.88
48404;BME280;34202;52.536;6.042;2023-03-04T03:04:29;102641.95;;;4.96;96.99
48404;BME280;34202;52.536;6.042;2023-03-04T03:09:30;102636.56;;;4.95;97.02
48404;BME280;34202;52.536;6.042;2023-03-04T03:14:30;102639.66;;;4.95;97.25
48404;BME280;34202;52.536;6.042;2023-03-04T03:19:31;102637.05;;;4.95;97.43
48404;BME280;34202;52.536;6.042;2023-03-04T03:24:31;102631.89;;;4.92;97.68
48404;BME280;34202;52.536;6.042;2023-03-04T03:29:32;102630.19;;;4.89;98.07
48404;BME280;34202;52.536;6.042;2023-03-04T03:34:32;102625.91;;;4.87;98.39
48404;BME280;34202;52.536;6.042;2023-03-04T03:39:32;102620.60;;;4.85;98.68
48404;BME280;34202;52.536;6.042;2023-03-04T03:44:33;102618.55;;;4.82;98.88
48404;BME280;34202;52.536;6.042;2023-03-04T03:49:33;102616.71;;;4.80;99.03
48404;BME280;34202;52.536;6.042;2023-03-04T03:54:34;102616.98;;;4.81;99.23
48404;BME280;34202;52.536;6.042;2023-03-04T03:59:34;102617.39;;;4.83;99.26
48404;BME280;34202;52.536;6.042;2023-03-04T04:04:34;102618.73;;;4.82;99.39
48404;BME280;34202;52.536;6.042;2023-03-04T04:09:35;102613.70;;;4.79;99.52
48404;BME280;34202;52.536;6.042;2023-03-04T04:14:35;102609.80;;;4.77;99.63
48404;BME280;34202;52.536;6.042;2023-03-04T04:19:35;102602.88;;;4.77;99.83
48404;BME280;34202;52.536;6.042;2023-03-04T04:24:36;102601.22;;;4.78;99.89
48404;BME280;34202;52.536;6.042;2023-03-04T04:29:36;102595.69;;;4.78;100.00
48404;BME280;34202;52.536;6.042;2023-03-04T04:34:37;102591.77;;;4.78;99.99
48404;BME280;34202;52.536;6.042;2023-03-04T04:39:37;102588.11;;;4.78;100.00
48404;BME280;34202;52.536;6.042;2023-03-04T04:44:37;102586.85;;;4.77;100.00
48404;BME280;34202;52.536;6.042;2023-03-04T04:49:38;102587.71;;;4.77;100.00
48404;BME280;34202;52.536;6.042;2023-03-04T04:54:38;102586.19;;;4.77;100.00
48404;BME280;34202;52.536;6.042;2023-03-04T04:59:39;102589.42;;;4.77;100.00
48404;BME280;34202;52.536;6.042;2023-03-04T05:04:39;102597.35;;;4.76;100.00
48404;BME280;34202;52.536;6.042;2023-03-04T05:09:39;102596.13;;;4.76;100.00
48404;BME280;34202;52.536;6.042;2023-03-04T05:14:40;102595.90;;;4.75;100.00
48404;BME280;34202;52.536;6.042;2023-03-04T05:19:40;102589.83;;;4.75;100.00
48404;BME280;34202;52.536;6.042;2023-03-04T05:24:41;102584.43;;;4.74;100.00
48404;BME280;34202;52.536;6.042;2023-03-04T05:29:41;102585.32;;;4.74;100.00
48404;BME280;34202;52.536;6.042;2023-03-04T05:34:43;102582.70;;;4.74;100.00
48404;BME280;34202;52.536;6.042;2023-03-04T05:39:44;102585.67;;;4.74;100.00
48404;BME280;34202;52.536;6.042;2023-03-04T05:44:44;102587.41;;;4.74;100.00
48404;BME280;34202;52.536;6.042;2023-03-04T05:49:44;102585.99;;;4.74;100.00
48404;BME280;34202;52.536;6.042;2023-03-04T05:54:45;102588.45;;;4.75;100.00
48404;BME280;34202;52.536;6.042;2023-03-04T05:59:45;102595.92;;;4.76;100.00
48404;BME280;34202;52.536;6.042;2023-03-04T06:04:45;102597.01;;;4.76;100.00
48404;BME280;34202;52.536;6.042;2023-03-04T06:09:46;102594.25;;;4.77;100.00
48404;BME280;34202;52.536;6.042;2023-03-04T06:14:46;102593.80;;;4.75;100.00
48404;BME280;34202;52.536;6.042;2023-03-04T06:19:46;102586.95;;;4.73;100.00
48404;BME280;34202;52.536;6.042;2023-03-04T06:24:47;102587.89;;;4.71;100.00
48404;BME280;34202;52.536;6.042;2023-03-04T06:29:47;102591.20;;;4.69;100.00
48404;BME280;34202;52.536;6.042;2023-03-04T06:34:47;102588.58;;;4.68;100.00
48404;BME280;34202;52.536;6.042;2023-03-04T06:39:48;102591.60;;;4.67;100.00
48404;BME280;34202;52.536;6.042;2023-03-04T06:44:49;102593.71;;;4.68;100.00
48404;BME280;34202;52.536;6.042;2023-03-04T06:49:49;102598.38;;;4.68;100.00
48404;BME280;34202;52.536;6.042;2023-03-04T06:54:50;102599.84;;;4.69;100.00
48404;BME280;34202;52.536;6.042;2023-03-04T06:59:50;102605.66;;;4.71;100.00
48404;BME280;34202;52.536;6.042;2023-03-04T07:04:51;102604.84;;;4.72;100.00
48404;BME280;34202;52.536;6.042;2023-03-04T07:09:51;102605.98;;;4.71;100.00
48404;BME280;34202;52.536;6.042;2023-03-04T07:14:51;102607.56;;;4.71;100.00
48404;BME280;34202;52.536;6.042;2023-03-04T07:19:52;102607.88;;;4.74;100.00
48404;BME280;34202;52.536;6.042;2023-03-04T07:24:52;102609.25;;;4.76;100.00
48404;BME280;34202;52.536;6.042;2023-03-04T07:29:52;102611.87;;;4.80;100.00
48404;BME280;34202;52.536;6.042;2023-03-04T07:34:53;102613.45;;;4.84;100.00
48404;BME280;34202;52.536;6.042;2023-03-04T07:39:53;102618.11;;;4.90;100.00
48404;BME280;34202;52.536;6.042;2023-03-04T07:44:53;102620.70;;;4.95;100.00
48404;BME280;34202;52.536;6.042;2023-03-04T07:49:54;102619.98;;;5.01;100.00
48404;BME280;34202;52.536;6.042;2023-03-04T07:54:55;102619.13;;;5.07;100.00
48404;BME280;34202;52.536;6.042;2023-03-04T07:59:55;102620.77;;;5.14;100.00
48404;BME280;34202;52.536;6.042;2023-03-04T08:04:56;102626.58;;;5.22;100.00
48404;BME280;34202;52.536;6.042;2023-03-04T08:09:56;102621.48;;;5.30;100.00
48404;BME280;34202;52.536;6.042;2023-03-04T08:14:56;102622.85;;;5.39;100.00
48404;BME280;34202;52.536;6.042;2023-03-04T08:19:57;102624.86;;;5.47;100.00
48404;BME280;34202;52.536;6.042;2023-03-04T08:24:57;102623.98;;;5.56;100.00
48404;BME280;34202;52.536;6.042;2023-03-04T08:29:57;102620.75;;;5.67;100.00
48404;BME280;34202;52.536;6.042;2023-03-04T08:34:58;102619.55;;;5.76;100.00
48404;BME280;34202;52.536;6.042;2023-03-04T08:40:01;102615.14;;;5.84;100.00
48404;BME280;34202;52.536;6.042;2023-03-04T08:45:02;102617.59;;;5.94;100.00
48404;BME280;34202;52.536;6.042;2023-03-04T08:50:04;102618.59;;;6.03;100.00
48404;BME280;34202;52.536;6.042;2023-03-04T08:55:06;102617.48;;;6.14;100.00
48404;BME280;34202;52.536;6.042;2023-03-04T09:00:07;102616.24;;;6.27;100.00
48404;BME280;34202;52.536;6.042;2023-03-04T09:05:08;102618.55;;;6.38;100.00
48404;BME280;34202;52.536;6.042;2023-03-04T09:10:09;102622.94;;;6.46;100.00
48404;BME280;34202;52.536;6.042;2023-03-04T09:15:10;102622.48;;;6.51;100.00
48404;BME280;34202;52.536;6.042;2023-03-04T09:20:12;102629.02;;;6.46;100.00
48404;BME280;34202;52.536;6.042;2023-03-04T09:25:13;102633.23;;;6.34;100.00
48404;BME280;34202;52.536;6.042;2023-03-04T09:30:17;102633.11;;;6.22;100.00
48404;BME280;34202;52.536;6.042;2023-03-04T09:35:18;102626.73;;;6.13;100.00
48404;BME280;34202;52.536;6.042;2023-03-04T09:40:21;102627.38;;;6.12;100.00
48404;BME280;34202;52.536;6.042;2023-03-04T09:45:26;102624.83;;;6.19;100.00
48404;BME280;34202;52.536;6.042;2023-03-04T09:50:32;102623.39;;;6.31;100.00
48404;BME280;34202;52.536;6.042;2023-03-04T09:55:36;102621.83;;;6.48;100.00
48404;BME280;34202;52.536;6.042;2023-03-04T10:00:49;102624.13;;;6.62;100.00
48404;BME280;34202;52.536;6.042;2023-03-04T10:06:03;102615.81;;;6.76;100.00
48404;BME280;34202;52.536;6.042;2023-03-04T10:16:34;102615.10;;;6.96;100.00
48404;BME280;34202;52.536;6.042;2023-03-04T10:21:49;102617.96;;;7.05;100.00
48404;BME280;34202;52.536;6.042;2023-03-04T10:27:03;102619.69;;;7.05;100.00
48404;BME280;34202;52.536;6.042;2023-03-04T10:32:11;102618.08;;;6.93;100.00
48404;BME280;34202;52.536;6.042;2023-03-04T10:37:14;102612.88;;;6.89;100.00
48404;BME280;34202;52.536;6.042;2023-03-04T10:47:15;102627.96;;;6.80;100.00
48404;BME280;34202;52.536;6.042;2023-03-04T10:57:22;102622.73;;;6.48;100.00
48404;BME280;34202;52.536;6.042;2023-03-04T11:02:35;102626.91;;;6.49;100.00
48404;BME280;34202;52.536;6.042;2023-03-04T11:12:47;102621.85;;;6.52;100.00
48404;BME280;34202;52.536;6.042;2023-03-04T11:17:51;102614.17;;;6.53;100.00
48404;BME280;34202;52.536;6.042;2023-03-04T11:22:54;102614.98;;;6.59;100.00
48404;BME280;34202;52.536;6.042;2023-03-04T11:28:03;102613.03;;;6.72;100.00
48404;BME280;34202;52.536;6.042;2023-03-04T11:33:14;102618.21;;;6.75;100.00
48404;BME280;34202;52.536;6.042;2023-03-04T11:38:19;102611.45;;;6.75;100.00
48404;BME280;34202;52.536;6.042;2023-03-04T11:43:25;102611.52;;;6.80;100.00
48404;BME280;34202;52.536;6.042;2023-03-04T11:48:46;102603.14;;;6.85;99.74
48404;BME280;34202;52.536;6.042;2023-03-04T11:54:15;102601.66;;;6.90;97.78
48404;BME280;34202;52.536;6.042;2023-03-04T11:59:28;102594.79;;;6.98;98.74
48404;BME280;34202;52.536;6.042;2023-03-04T12:15:11;102587.35;;;6.98;96.30
48404;BME280;34202;52.536;6.042;2023-03-04T12:20:25;102581.45;;;7.02;95.75
48404;BME280;34202;52.536;6.042;2023-03-04T12:56:49;102547.86;;;7.12;92.30
48404;BME280;34202;52.536;6.042;2023-03-04T13:13:03;102536.84;;;7.47;89.87
48404;BME280;34202;52.536;6.042;2023-03-04T13:23:32;102521.58;;;7.53;91.10
48404;BME280;34202;52.536;6.042;2023-03-04T13:28:34;102516.17;;;7.57;89.71
48404;BME280;34202;52.536;6.042;2023-03-04T13:38:37;102512.61;;;7.63;88.06
48404;BME280;34202;52.536;6.042;2023-03-04T13:43:43;102518.15;;;7.54;86.93
48404;BME280;34202;52.536;6.042;2023-03-04T13:59:20;102508.15;;;7.37;85.52
48404;BME280;34202;52.536;6.042;2023-03-04T14:04:34;102511.23;;;7.40;84.71
48404;BME280;34202;52.536;6.042;2023-03-04T14:09:35;102507.23;;;7.40;84.03
48404;BME280;34202;52.536;6.042;2023-03-04T14:14:43;102502.77;;;7.41;84.04
48404;BME280;34202;52.536;6.042;2023-03-04T14:19:48;102501.38;;;7.40;83.08
48404;BME280;34202;52.536;6.042;2023-03-04T14:30:17;102496.58;;;7.19;81.91
48404;BME280;34202;52.536;6.042;2023-03-04T14:35:22;102492.45;;;7.12;82.29
48404;BME280;34202;52.536;6.042;2023-03-04T14:40:26;102482.39;;;7.08;82.97
48404;BME280;34202;52.536;6.042;2023-03-04T14:45:29;102481.11;;;7.14;83.58
48404;BME280;34202;52.536;6.042;2023-03-04T14:50:30;102486.83;;;7.14;81.41
48404;BME280;34202;52.536;6.042;2023-03-04T14:55:31;102475.30;;;7.12;82.41
48404;BME280;34202;52.536;6.042;2023-03-04T15:00:37;102477.93;;;7.16;82.59
48404;BME280;34202;52.536;6.042;2023-03-04T15:05:40;102466.63;;;7.19;82.75
48404;BME280;34202;52.536;6.042;2023-03-04T15:10:40;102466.39;;;7.22;83.26
48404;BME280;34202;52.536;6.042;2023-03-04T15:15:42;102457.52;;;7.24;83.19
48404;BME280;34202;52.536;6.042;2023-03-04T15:20:58;102454.04;;;7.24;82.96
48404;BME280;34202;52.536;6.042;2023-03-04T15:26:02;102450.16;;;7.23;82.60
48404;BME280;34202;52.536;6.042;2023-03-04T15:31:05;102448.05;;;7.18;82.58
48404;BME280;34202;52.536;6.042;2023-03-04T15:36:10;102451.26;;;7.09;82.03
48404;BME280;34202;52.536;6.042;2023-03-04T15:41:14;102465.89;;;6.92;82.62
48404;BME280;34202;52.536;6.042;2023-03-04T15:46:17;102463.35;;;6.75;83.17
48404;BME280;34202;52.536;6.042;2023-03-04T15:51:24;102464.99;;;6.66;84.24
48404;BME280;34202;52.536;6.042;2023-03-04T15:56:31;102469.48;;;6.52;85.04
48404;BME280;34202;52.536;6.042;2023-03-04T16:01:32;102469.02;;;6.35;86.26
48404;BME280;34202;52.536;6.042;2023-03-04T16:06:32;102463.34;;;6.29;87.15
48404;BME280;34202;52.536;6.042;2023-03-04T16:11:36;102461.11;;;6.26;87.83
48404;BME280;34202;52.536;6.042;2023-03-04T16:16:40;102464.19;;;6.26;88.12
48404;BME280;34202;52.536;6.042;2023-03-04T16:21:40;102461.50;;;6.24;88.60
48404;BME280;34202;52.536;6.042;2023-03-04T16:26:41;102460.85;;;6.24;88.87
48404;BME280;34202;52.536;6.042;2023-03-04T16:31:41;102454.45;;;6.21;88.89
48404;BME280;34202;52.536;6.042;2023-03-04T16:36:42;102461.49;;;6.13;88.93
48404;BME280;34202;52.536;6.042;2023-03-04T16:41:42;102457.34;;;6.06;89.86
48404;BME280;34202;52.536;6.042;2023-03-04T16:46:43;102448.00;;;5.96;90.82
48404;BME280;34202;52.536;6.042;2023-03-04T16:51:48;102447.26;;;5.92;91.41
48404;BME280;34202;52.536;6.042;2023-03-04T16:56:49;102442.80;;;5.87;91.90
48404;BME280;34202;52.536;6.042;2023-03-04T17:01:51;102437.20;;;5.85;92.10
48404;BME280;34202;52.536;6.042;2023-03-04T17:06:52;102441.64;;;5.80;92.17
48404;BME280;34202;52.536;6.042;2023-03-04T17:11:52;102443.39;;;5.74;92.33
48404;BME280;34202;52.536;6.042;2023-03-04T17:16:55;102446.58;;;5.62;92.20
48404;BME280;34202;52.536;6.042;2023-03-04T17:21:57;102453.73;;;5.47;92.93
48404;BME280;34202;52.536;6.042;2023-03-04T17:26:58;102455.45;;;5.31;93.24
48404;BME280;34202;52.536;6.042;2023-03-04T17:31:58;102443.23;;;5.16;93.50
48404;BME280;34202;52.536;6.042;2023-03-04T17:37:00;102442.17;;;5.03;93.61
48404;BME280;34202;52.536;6.042;2023-03-04T17:42:00;102447.09;;;4.95;93.97
48404;BME280;34202;52.536;6.042;2023-03-04T17:47:01;102456.05;;;4.92;94.25
48404;BME280;34202;52.536;6.042;2023-03-04T17:52:02;102460.17;;;4.91;94.36
48404;BME280;34202;52.536;6.042;2023-03-04T17:57:04;102470.08;;;4.89;94.37
48404;BME280;34202;52.536;6.042;2023-03-04T18:02:05;102473.65;;;4.82;94.24
48404;BME280;34202;52.536;6.042;2023-03-04T18:07:05;102471.29;;;4.74;94.21
48404;BME280;34202;52.536;6.042;2023-03-04T18:12:06;102476.65;;;4.71;94.67
48404;BME280;34202;52.536;6.042;2023-03-04T18:17:07;102479.77;;;4.71;94.92
48404;BME280;34202;52.536;6.042;2023-03-04T18:22:07;102485.90;;;4.70;94.99
48404;BME280;34202;52.536;6.042;2023-03-04T18:27:07;102487.30;;;4.71;95.29
48404;BME280;34202;52.536;6.042;2023-03-04T18:32:08;102482.08;;;4.72;95.76
48404;BME280;34202;52.536;6.042;2023-03-04T18:37:08;102481.80;;;4.74;95.82
48404;BME280;34202;52.536;6.042;2023-03-04T18:42:09;102474.26;;;4.75;96.18
48404;BME280;34202;52.536;6.042;2023-03-04T18:47:09;102468.02;;;4.74;96.39
48404;BME280;34202;52.536;6.042;2023-03-04T18:52:11;102466.15;;;4.74;96.71
48404;BME280;34202;52.536;6.042;2023-03-04T18:57:13;102464.76;;;4.74;96.78
48404;BME280;34202;52.536;6.042;2023-03-04T19:02:23;102470.48;;;4.75;96.89
48404;BME280;34202;52.536;6.042;2023-03-04T19:07:25;102470.94;;;4.74;96.94
48404;BME280;34202;52.536;6.042;2023-03-04T19:12:26;102470.17;;;4.73;97.42
48404;BME280;34202;52.536;6.042;2023-03-04T19:17:26;102472.31;;;4.71;97.66
48404;BME280;34202;52.536;6.042;2023-03-04T19:22:31;102473.98;;;4.63;98.04
48404;BME280;34202;52.536;6.042;2023-03-04T19:27:31;102466.77;;;4.55;98.31
48404;BME280;34202;52.536;6.042;2023-03-04T19:32:32;102462.16;;;4.47;98.63
48404;BME280;34202;52.536;6.042;2023-03-04T19:37:32;102463.45;;;4.45;99.05
48404;BME280;34202;52.536;6.042;2023-03-04T19:42:32;102460.06;;;4.46;99.29
48404;BME280;34202;52.536;6.042;2023-03-04T19:47:34;102458.88;;;4.43;99.16
48404;BME280;34202;52.536;6.042;2023-03-04T19:52:36;102453.73;;;4.41;99.40
48404;BME280;34202;52.536;6.042;2023-03-04T19:57:36;102445.79;;;4.41;99.52
48404;BME280;34202;52.536;6.042;2023-03-04T20:02:36;102441.73;;;4.42;99.60
48404;BME280;34202;52.536;6.042;2023-03-04T20:07:37;102441.84;;;4.41;99.58
48404;BME280;34202;52.536;6.042;2023-03-04T20:12:38;102441.86;;;4.38;99.69
48404;BME280;34202;52.536;6.042;2023-03-04T20:17:39;102438.23;;;4.35;99.73
48404;BME280;34202;52.536;6.042;2023-03-04T20:22:39;102438.92;;;4.29;99.50
48404;BME280;34202;52.536;6.042;2023-03-04T20:27:39;102439.30;;;4.24;99.48
48404;BME280;34202;52.536;6.042;2023-03-04T20:32:40;102439.14;;;4.18;99.39
48404;BME280;34202;52.536;6.042;2023-03-04T20:37:41;102441.80;;;4.14;99.13
48404;BME280;34202;52.536;6.042;2023-03-04T20:42:42;102446.61;;;4.08;98.97
48404;BME280;34202;52.536;6.042;2023-03-04T20:47:42;102446.90;;;4.01;98.93
48404;BME280;34202;52.536;6.042;2023-03-04T20:52:42;102446.42;;;3.95;99.11
48404;BME280;34202;52.536;6.042;2023-03-04T20:57:45;102444.91;;;3.90;99.29
48404;BME280;34202;52.536;6.042;2023-03-04T21:02:48;102441.61;;;3.84;99.25
48404;BME280;34202;52.536;6.042;2023-03-04T21:07:48;102441.07;;;3.81;99.51
48404;BME280;34202;52.536;6.042;2023-03-04T21:12:49;102443.05;;;3.80;99.74
48404;BME280;34202;52.536;6.042;2023-03-04T21:17:49;102441.98;;;3.79;99.94
48404;BME280;34202;52.536;6.042;2023-03-04T21:22:50;102434.82;;;3.77;99.97
48404;BME280;34202;52.536;6.042;2023-03-04T21:27:50;102433.60;;;3.74;99.99
48404;BME280;34202;52.536;6.042;2023-03-04T21:32:50;102424.89;;;3.73;100.00
48404;BME280;34202;52.536;6.042;2023-03-04T21:37:51;102419.73;;;3.70;100.00
48404;BME280;34202;52.536;6.042;2023-03-04T21:42:51;102419.59;;;3.67;100.00
48404;BME280;34202;52.536;6.042;2023-03-04T21:47:52;102414.78;;;3.64;100.00
48404;BME280;34202;52.536;6.042;2023-03-04T21:52:52;102414.53;;;3.63;100.00
48404;BME280;34202;52.536;6.042;2023-03-04T21:57:53;102410.91;;;3.60;100.00
48404;BME280;34202;52.536;6.042;2023-03-04T22:02:53;102402.27;;;3.57;100.00
48404;BME280;34202;52.536;6.042;2023-03-04T22:07:53;102400.05;;;3.52;100.00
48404;BME280;34202;52.536;6.042;2023-03-04T22:12:54;102396.93;;;3.48;100.00
48404;BME280;34202;52.536;6.042;2023-03-04T22:17:54;102397.30;;;3.46;100.00
48404;BME280;34202;52.536;6.042;2023-03-04T22:22:54;102392.98;;;3.45;100.00
48404;BME280;34202;52.536;6.042;2023-03-04T22:27:55;102387.91;;;3.44;100.00
48404;BME280;34202;52.536;6.042;2023-03-04T22:32:55;102380.15;;;3.44;100.00
48404;BME280;34202;52.536;6.042;2023-03-04T22:37:56;102375.66;;;3.41;100.00
48404;BME280;34202;52.536;6.042;2023-03-04T22:42:56;102371.77;;;3.36;100.00
48404;BME280;34202;52.536;6.042;2023-03-04T22:47:57;102370.89;;;3.30;100.00
48404;BME280;34202;52.536;6.042;2023-03-04T22:52:58;102365.88;;;3.24;100.00
48404;BME280;34202;52.536;6.042;2023-03-04T22:57:59;102361.80;;;3.17;100.00
48404;BME280;34202;52.536;6.042;2023-03-04T23:02:59;102358.55;;;3.11;100.00
48404;BME280;34202;52.536;6.042;2023-03-04T23:08:00;102354.66;;;3.07;100.00
48404;BME280;34202;52.536;6.042;2023-03-04T23:13:00;102355.48;;;3.03;100.00
48404;BME280;34202;52.536;6.042;2023-03-04T23:18:01;102350.96;;;3.00;100.00
48404;BME280;34202;52.536;6.042;2023-03-04T23:23:01;102346.73;;;2.98;100.00
48404;BME280;34202;52.536;6.042;2023-03-04T23:28:02;102344.42;;;2.97;100.00
48404;BME280;34202;52.536;6.042;2023-03-04T23:33:03;102337.90;;;2.97;100.00
48404;BME280;34202;52.536;6.042;2023-03-04T23:38:03;102328.81;;;2.98;100.00
48404;BME280;34202;52.536;6.042;2023-03-04T23:43:04;102322.87;;;2.99;100.00
48404;BME280;34202;52.536;6.042;2023-03-04T23:48:04;102317.27;;;3.00;100.00
48404;BME280;34202;52.536;6.042;2023-03-04T23:53:05;102312.52;;;3.01;100.00
48404;BME280;34202;52.536;6.042;2023-03-04T23:58:05;102309.66;;;3.02;100.00
